sensor_id;sensor_type;location;lat;lon;timestamp;P1;durP1;ratioP1;P2;durP2;ratioP2
37785;SDS011;23625;48.784;9.336;2023-12-22T00:01:13;11.23;;;2.35;;
37785;SDS011;23625;48.784;9.336;2023-12-22T00:03:42;4.70;;;1.15;;
37785;SDS011;23625;48.784;9.336;2023-12-22T00:06:07;6.68;;;0.73;;
37785;SDS011;23625;48.784;9.336;2023-12-22T00:08:33;3.58;;;1.00;;
37785;SDS011;23625;48.784;9.336;2023-12-22T00:10:59;4.40;;;1.15;;
37785;SDS011;23625;48.784;9.336;2023-12-22T00:13:24;6.43;;;1.48;;
37785;SDS011;23625;48.784;9.336;2023-12-22T00:15:50;3.58;;;0.98;;
37785;SDS011;23625;48.784;9.336;2023-12-22T00:18:15;4.50;;;0.80;;
37785;SDS011;23625;48.784;9.336;2023-12-22T00:20:41;5.10;;;1.00;;
37785;SDS011;23625;48.784;9.336;2023-12-22T00:23:07;7.20;;;1.30;;
37785;SDS011;23625;48.784;9.336;2023-12-22T00:25:32;3.28;;;1.13;;
37785;SDS011;23625;48.784;9.336;2023-12-22T00:27:58;7.32;;;1.05;;
37785;SDS011;23625;48.784;9.336;2023-12-22T00:30:26;5.07;;;1.30;;
37785;SDS011;23625;48.784;9.336;2023-12-22T00:32:51;9.70;;;1.00;;
37785;SDS011;23625;48.784;9.336;2023-12-22T00:35:17;4.43;;;1.27;;
37785;SDS011;23625;48.784;9.336;2023-12-22T00:37:42;7.70;;;2.00;;
37785;SDS011;23625;48.784;9.336;2023-12-22T00:40:08;9.88;;;1.92;;
37785;SDS011;23625;48.784;9.336;2023-12-22T00:42:34;16.85;;;4.53;;
37785;SDS011;23625;48.784;9.336;2023-12-22T00:45:00;14.07;;;3.72;;
37785;SDS011;23625;48.784;9.336;2023-12-22T00:47:26;11.88;;;4.55;;
37785;SDS011;23625;48.784;9.336;2023-12-22T00:49:51;5.82;;;1.17;;
37785;SDS011;23625;48.784;9.336;2023-12-22T00:52:17;4.47;;;1.10;;
37785;SDS011;23625;48.784;9.336;2023-12-22T00:54:42;5.75;;;1.08;;
37785;SDS011;23625;48.784;9.336;2023-12-22T00:57:08;4.43;;;1.63;;
37785;SDS011;23625;48.784;9.336;2023-12-22T00:59:34;7.82;;;1.33;;
37785;SDS011;23625;48.784;9.336;2023-12-22T01:01:59;4.88;;;0.80;;
37785;SDS011;23625;48.784;9.336;2023-12-22T01:04:25;5.05;;;1.13;;
37785;SDS011;23625;48.784;9.336;2023-12-22T01:06:50;1.85;;;1.00;;
37785;SDS011;23625;48.784;9.336;2023-12-22T01:09:16;2.22;;;0.95;;
37785;SDS011;23625;48.784;9.336;2023-12-22T01:11:44;5.18;;;0.70;;
37785;SDS011;23625;48.784;9.336;2023-12-22T01:14:10;2.35;;;0.85;;
37785;SDS011;23625;48.784;9.336;2023-12-22T01:16:38;1.42;;;0.50;;
37785;SDS011;23625;48.784;9.336;2023-12-22T01:19:04;0.85;;;0.73;;
37785;SDS011;23625;48.784;9.336;2023-12-22T01:21:29;2.15;;;1.15;;
37785;SDS011;23625;48.784;9.336;2023-12-22T01:23:55;1.70;;;0.60;;
37785;SDS011;23625;48.784;9.336;2023-12-22T01:26:20;0.95;;;0.70;;
37785;SDS011;23625;48.784;9.336;2023-12-22T01:28:46;3.58;;;0.68;;
37785;SDS011;23625;48.784;9.336;2023-12-22T01:31:11;2.33;;;0.80;;
37785;SDS011;23625;48.784;9.336;2023-12-22T01:33:37;2.13;;;0.90;;
37785;SDS011;23625;48.784;9.336;2023-12-22T01:36:03;7.18;;;1.27;;
37785;SDS011;23625;48.784;9.336;2023-12-22T01:38:28;3.00;;;0.80;;
37785;SDS011;23625;48.784;9.336;2023-12-22T01:40:54;3.53;;;0.68;;
37785;SDS011;23625;48.784;9.336;2023-12-22T01:43:20;7.55;;;1.30;;
37785;SDS011;23625;48.784;9.336;2023-12-22T01:45:55;4.70;;;1.52;;
37785;SDS011;23625;48.784;9.336;2023-12-22T01:48:22;6.03;;;1.23;;
37785;SDS011;23625;48.784;9.336;2023-12-22T01:50:49;10.25;;;1.38;;
37785;SDS011;23625;48.784;9.336;2023-12-22T01:53:19;10.32;;;1.45;;
37785;SDS011;23625;48.784;9.336;2023-12-22T01:55:46;6.53;;;0.90;;
37785;SDS011;23625;48.784;9.336;2023-12-22T01:58:14;6.72;;;1.17;;
37785;SDS011;23625;48.784;9.336;2023-12-22T02:00:40;4.45;;;1.02;;
37785;SDS011;23625;48.784;9.336;2023-12-22T02:03:06;12.13;;;2.05;;
37785;SDS011;23625;48.784;9.336;2023-12-22T02:05:32;4.93;;;1.25;;
37785;SDS011;23625;48.784;9.336;2023-12-22T02:07:58;8.65;;;1.60;;
37785;SDS011;23625;48.784;9.336;2023-12-22T02:10:24;7.45;;;1.75;;
37785;SDS011;23625;48.784;9.336;2023-12-22T02:12:49;3.17;;;0.77;;
37785;SDS011;23625;48.784;9.336;2023-12-22T02:15:15;9.77;;;1.27;;
37785;SDS011;23625;48.784;9.336;2023-12-22T02:17:43;6.28;;;1.35;;
37785;SDS011;23625;48.784;9.336;2023-12-22T02:20:10;5.22;;;0.88;;
37785;SDS011;23625;48.784;9.336;2023-12-22T02:22:36;6.65;;;1.08;;
37785;SDS011;23625;48.784;9.336;2023-12-22T02:25:02;5.60;;;0.88;;
37785;SDS011;23625;48.784;9.336;2023-12-22T02:32:37;6.15;;;0.80;;
37785;SDS011;23625;48.784;9.336;2023-12-22T02:35:07;2.90;;;1.65;;
37785;SDS011;23625;48.784;9.336;2023-12-22T02:37:35;17.15;;;2.90;;
37785;SDS011;23625;48.784;9.336;2023-12-22T02:40:03;1.92;;;0.60;;
37785;SDS011;23625;48.784;9.336;2023-12-22T02:42:29;9.60;;;1.20;;
37785;SDS011;23625;48.784;9.336;2023-12-22T02:44:58;4.13;;;0.73;;
37785;SDS011;23625;48.784;9.336;2023-12-22T02:47:25;4.15;;;0.85;;
37785;SDS011;23625;48.784;9.336;2023-12-22T02:49:52;5.82;;;0.70;;
37785;SDS011;23625;48.784;9.336;2023-12-22T02:52:18;8.52;;;0.80;;
37785;SDS011;23625;48.784;9.336;2023-12-22T02:54:44;5.35;;;0.95;;
37785;SDS011;23625;48.784;9.336;2023-12-22T02:57:10;6.13;;;0.82;;
37785;SDS011;23625;48.784;9.336;2023-12-22T02:59:36;4.60;;;0.90;;
37785;SDS011;23625;48.784;9.336;2023-12-22T03:02:02;4.10;;;1.10;;
37785;SDS011;23625;48.784;9.336;2023-12-22T03:04:28;7.90;;;1.48;;
37785;SDS011;23625;48.784;9.336;2023-12-22T03:06:53;10.45;;;1.35;;
37785;SDS011;23625;48.784;9.336;2023-12-22T03:09:19;7.22;;;1.00;;
37785;SDS011;23625;48.784;9.336;2023-12-22T03:11:44;4.60;;;1.08;;
37785;SDS011;23625;48.784;9.336;2023-12-22T03:14:10;6.15;;;1.38;;
37785;SDS011;23625;48.784;9.336;2023-12-22T03:16:35;3.40;;;1.02;;
37785;SDS011;23625;48.784;9.336;2023-12-22T03:19:01;12.32;;;1.20;;
37785;SDS011;23625;48.784;9.336;2023-12-22T03:21:27;6.20;;;1.10;;
37785;SDS011;23625;48.784;9.336;2023-12-22T03:23:52;2.25;;;0.80;;
37785;SDS011;23625;48.784;9.336;2023-12-22T03:26:18;2.72;;;0.98;;
37785;SDS011;23625;48.784;9.336;2023-12-22T03:28:43;10.60;;;1.23;;
37785;SDS011;23625;48.784;9.336;2023-12-22T03:31:09;10.00;;;1.23;;
37785;SDS011;23625;48.784;9.336;2023-12-22T03:33:34;3.88;;;1.27;;
37785;SDS011;23625;48.784;9.336;2023-12-22T03:36:00;10.23;;;1.23;;
37785;SDS011;23625;48.784;9.336;2023-12-22T03:38:25;12.55;;;1.40;;
37785;SDS011;23625;48.784;9.336;2023-12-22T03:40:51;3.50;;;1.15;;
37785;SDS011;23625;48.784;9.336;2023-12-22T03:43:17;12.02;;;1.83;;
37785;SDS011;23625;48.784;9.336;2023-12-22T03:45:42;7.95;;;0.93;;
37785;SDS011;23625;48.784;9.336;2023-12-22T03:48:08;4.20;;;0.90;;
37785;SDS011;23625;48.784;9.336;2023-12-22T03:50:33;10.23;;;1.58;;
37785;SDS011;23625;48.784;9.336;2023-12-22T03:52:59;7.00;;;0.95;;
37785;SDS011;23625;48.784;9.336;2023-12-22T03:55:24;5.85;;;1.27;;
37785;SDS011;23625;48.784;9.336;2023-12-22T03:57:50;4.13;;;0.70;;
37785;SDS011;23625;48.784;9.336;2023-12-22T04:00:15;7.95;;;0.98;;
37785;SDS011;23625;48.784;9.336;2023-12-22T04:02:41;3.63;;;0.57;;
37785;SDS011;23625;48.784;9.336;2023-12-22T04:05:07;2.67;;;1.20;;
37785;SDS011;23625;48.784;9.336;2023-12-22T04:07:32;5.50;;;1.23;;
37785;SDS011;23625;48.784;9.336;2023-12-22T04:09:58;9.63;;;1.52;;
37785;SDS011;23625;48.784;9.336;2023-12-22T04:12:24;7.05;;;0.95;;
37785;SDS011;23625;48.784;9.336;2023-12-22T04:14:49;8.35;;;1.02;;
37785;SDS011;23625;48.784;9.336;2023-12-22T04:17:16;8.05;;;1.10;;
37785;SDS011;23625;48.784;9.336;2023-12-22T04:19:42;5.10;;;1.13;;
37785;SDS011;23625;48.784;9.336;2023-12-22T04:22:07;12.05;;;1.20;;
37785;SDS011;23625;48.784;9.336;2023-12-22T04:24:33;7.90;;;1.30;;
37785;SDS011;23625;48.784;9.336;2023-12-22T04:26:58;8.07;;;1.10;;
37785;SDS011;23625;48.784;9.336;2023-12-22T04:29:24;11.82;;;1.23;;
37785;SDS011;23625;48.784;9.336;2023-12-22T04:31:49;11.98;;;1.80;;
37785;SDS011;23625;48.784;9.336;2023-12-22T04:34:15;9.45;;;1.10;;
37785;SDS011;23625;48.784;9.336;2023-12-22T04:36:41;11.73;;;1.45;;
37785;SDS011;23625;48.784;9.336;2023-12-22T04:39:06;7.32;;;1.23;;
37785;SDS011;23625;48.784;9.336;2023-12-22T04:41:32;8.55;;;1.40;;
37785;SDS011;23625;48.784;9.336;2023-12-22T04:43:58;6.57;;;1.45;;
37785;SDS011;23625;48.784;9.336;2023-12-22T04:46:28;7.28;;;1.35;;
37785;SDS011;23625;48.784;9.336;2023-12-22T04:48:56;8.52;;;1.38;;
37785;SDS011;23625;48.784;9.336;2023-12-22T04:51:21;7.28;;;1.30;;
37785;SDS011;23625;48.784;9.336;2023-12-22T04:53:47;10.00;;;1.45;;
37785;SDS011;23625;48.784;9.336;2023-12-22T04:56:13;3.65;;;1.05;;
37785;SDS011;23625;48.784;9.336;2023-12-22T04:58:39;7.50;;;1.00;;
37785;SDS011;23625;48.784;9.336;2023-12-22T05:01:04;4.72;;;1.02;;
37785;SDS011;23625;48.784;9.336;2023-12-22T05:03:30;3.08;;;1.27;;
37785;SDS011;23625;48.784;9.336;2023-12-22T05:05:55;5.00;;;1.30;;
37785;SDS011;23625;48.784;9.336;2023-12-22T05:08:21;7.25;;;1.30;;
37785;SDS011;23625;48.784;9.336;2023-12-22T05:10:47;9.20;;;1.60;;
37785;SDS011;23625;48.784;9.336;2023-12-22T05:13:12;6.25;;;0.90;;
37785;SDS011;23625;48.784;9.336;2023-12-22T05:15:38;7.53;;;2.33;;
37785;SDS011;23625;48.784;9.336;2023-12-22T05:18:03;8.77;;;1.15;;
37785;SDS011;23625;48.784;9.336;2023-12-22T05:20:29;9.02;;;1.50;;
37785;SDS011;23625;48.784;9.336;2023-12-22T05:22:55;7.07;;;1.30;;
37785;SDS011;23625;48.784;9.336;2023-12-22T05:25:20;11.75;;;1.75;;
37785;SDS011;23625;48.784;9.336;2023-12-22T05:27:46;12.88;;;1.67;;
37785;SDS011;23625;48.784;9.336;2023-12-22T05:30:11;9.30;;;2.55;;
37785;SDS011;23625;48.784;9.336;2023-12-22T05:32:37;10.75;;;1.40;;
37785;SDS011;23625;48.784;9.336;2023-12-22T05:35:03;15.63;;;2.15;;
37785;SDS011;23625;48.784;9.336;2023-12-22T05:37:29;5.38;;;1.10;;
37785;SDS011;23625;48.784;9.336;2023-12-22T05:39:55;10.65;;;1.88;;
37785;SDS011;23625;48.784;9.336;2023-12-22T05:42:20;9.73;;;1.40;;
37785;SDS011;23625;48.784;9.336;2023-12-22T05:44:46;10.45;;;1.73;;
37785;SDS011;23625;48.784;9.336;2023-12-22T05:47:14;8.85;;;2.13;;
37785;SDS011;23625;48.784;9.336;2023-12-22T05:49:40;9.23;;;1.48;;
37785;SDS011;23625;48.784;9.336;2023-12-22T05:52:06;11.80;;;1.92;;
37785;SDS011;23625;48.784;9.336;2023-12-22T05:54:32;11.95;;;1.92;;
37785;SDS011;23625;48.784;9.336;2023-12-22T05:56:57;12.18;;;2.17;;
37785;SDS011;23625;48.784;9.336;2023-12-22T05:59:23;11.52;;;1.85;;
37785;SDS011;23625;48.784;9.336;2023-12-22T06:01:52;12.73;;;2.88;;
37785;SDS011;23625;48.784;9.336;2023-12-22T06:04:18;18.63;;;3.53;;
37785;SDS011;23625;48.784;9.336;2023-12-22T06:06:44;12.77;;;1.63;;
37785;SDS011;23625;48.784;9.336;2023-12-22T06:09:10;7.93;;;2.55;;
37785;SDS011;23625;48.784;9.336;2023-12-22T06:11:38;9.07;;;2.03;;
37785;SDS011;23625;48.784;9.336;2023-12-22T06:14:05;19.40;;;2.42;;
37785;SDS011;23625;48.784;9.336;2023-12-22T06:16:30;16.45;;;2.55;;
37785;SDS011;23625;48.784;9.336;2023-12-22T06:18:56;16.92;;;2.33;;
37785;SDS011;23625;48.784;9.336;2023-12-22T06:21:22;8.95;;;2.13;;
37785;SDS011;23625;48.784;9.336;2023-12-22T06:23:47;22.80;;;4.82;;
37785;SDS011;23625;48.784;9.336;2023-12-22T06:26:13;24.40;;;5.88;;
37785;SDS011;23625;48.784;9.336;2023-12-22T06:28:39;15.50;;;2.60;;
37785;SDS011;23625;48.784;9.336;2023-12-22T06:31:08;15.63;;;2.28;;
37785;SDS011;23625;48.784;9.336;2023-12-22T06:33:45;11.52;;;2.15;;
37785;SDS011;23625;48.784;9.336;2023-12-22T06:36:18;20.58;;;3.08;;
37785;SDS011;23625;48.784;9.336;2023-12-22T06:38:48;11.13;;;1.83;;
37785;SDS011;23625;48.784;9.336;2023-12-22T06:41:19;9.43;;;2.40;;
37785;SDS011;23625;48.784;9.336;2023-12-22T06:43:48;6.90;;;1.60;;
37785;SDS011;23625;48.784;9.336;2023-12-22T06:46:15;11.65;;;2.15;;
37785;SDS011;23625;48.784;9.336;2023-12-22T06:48:41;13.95;;;2.72;;
37785;SDS011;23625;48.784;9.336;2023-12-22T06:51:07;21.15;;;2.17;;
37785;SDS011;23625;48.784;9.336;2023-12-22T06:53:32;19.92;;;1.88;;
37785;SDS011;23625;48.784;9.336;2023-12-22T06:55:58;12.07;;;2.15;;
37785;SDS011;23625;48.784;9.336;2023-12-22T06:58:24;12.70;;;2.33;;
37785;SDS011;23625;48.784;9.336;2023-12-22T07:00:50;7.45;;;1.98;;
37785;SDS011;23625;48.784;9.336;2023-12-22T07:03:16;16.80;;;1.50;;
37785;SDS011;23625;48.784;9.336;2023-12-22T07:05:44;11.23;;;1.58;;
37785;SDS011;23625;48.784;9.336;2023-12-22T07:08:09;10.20;;;1.45;;
37785;SDS011;23625;48.784;9.336;2023-12-22T07:10:35;5.95;;;1.55;;
37785;SDS011;23625;48.784;9.336;2023-12-22T07:13:01;7.82;;;1.30;;
37785;SDS011;23625;48.784;9.336;2023-12-22T07:15:26;14.48;;;2.83;;
37785;SDS011;23625;48.784;9.336;2023-12-22T07:17:53;7.18;;;2.25;;
37785;SDS011;23625;48.784;9.336;2023-12-22T07:20:18;8.45;;;1.30;;
37785;SDS011;23625;48.784;9.336;2023-12-22T07:22:45;8.70;;;1.35;;
37785;SDS011;23625;48.784;9.336;2023-12-22T07:25:11;12.02;;;2.03;;
37785;SDS011;23625;48.784;9.336;2023-12-22T07:27:36;12.25;;;2.15;;
37785;SDS011;23625;48.784;9.336;2023-12-22T07:30:02;8.85;;;1.55;;
37785;SDS011;23625;48.784;9.336;2023-12-22T07:32:28;7.43;;;1.55;;
37785;SDS011;23625;48.784;9.336;2023-12-22T07:34:54;9.95;;;1.45;;
37785;SDS011;23625;48.784;9.336;2023-12-22T07:37:20;12.75;;;2.50;;
37785;SDS011;23625;48.784;9.336;2023-12-22T07:39:46;6.72;;;2.05;;
37785;SDS011;23625;48.784;9.336;2023-12-22T07:42:11;8.40;;;2.13;;
37785;SDS011;23625;48.784;9.336;2023-12-22T07:44:37;14.23;;;1.55;;
37785;SDS011;23625;48.784;9.336;2023-12-22T07:47:02;14.90;;;1.88;;
37785;SDS011;23625;48.784;9.336;2023-12-22T07:49:28;8.90;;;1.00;;
37785;SDS011;23625;48.784;9.336;2023-12-22T07:51:54;9.00;;;1.60;;
37785;SDS011;23625;48.784;9.336;2023-12-22T07:54:20;7.07;;;1.80;;
37785;SDS011;23625;48.784;9.336;2023-12-22T07:56:45;16.15;;;1.90;;
37785;SDS011;23625;48.784;9.336;2023-12-22T07:59:11;9.05;;;2.10;;
37785;SDS011;23625;48.784;9.336;2023-12-22T08:01:37;10.02;;;2.67;;
37785;SDS011;23625;48.784;9.336;2023-12-22T08:04:02;12.20;;;2.08;;
37785;SDS011;23625;48.784;9.336;2023-12-22T08:06:28;9.32;;;1.50;;
37785;SDS011;23625;48.784;9.336;2023-12-22T08:08:54;9.80;;;2.17;;
37785;SDS011;23625;48.784;9.336;2023-12-22T08:11:20;10.43;;;1.70;;
37785;SDS011;23625;48.784;9.336;2023-12-22T08:13:45;9.30;;;1.42;;
37785;SDS011;23625;48.784;9.336;2023-12-22T08:16:12;13.15;;;1.50;;
37785;SDS011;23625;48.784;9.336;2023-12-22T08:18:38;7.70;;;1.33;;
37785;SDS011;23625;48.784;9.336;2023-12-22T08:21:03;7.47;;;1.70;;
37785;SDS011;23625;48.784;9.336;2023-12-22T08:23:29;8.65;;;1.23;;
37785;SDS011;23625;48.784;9.336;2023-12-22T08:25:54;4.80;;;1.00;;
37785;SDS011;23625;48.784;9.336;2023-12-22T08:28:20;7.00;;;1.08;;
37785;SDS011;23625;48.784;9.336;2023-12-22T08:30:45;11.93;;;1.63;;
37785;SDS011;23625;48.784;9.336;2023-12-22T08:33:11;9.45;;;1.38;;
37785;SDS011;23625;48.784;9.336;2023-12-22T08:35:36;7.45;;;1.88;;
37785;SDS011;23625;48.784;9.336;2023-12-22T08:38:02;12.82;;;2.88;;
37785;SDS011;23625;48.784;9.336;2023-12-22T08:40:28;7.95;;;2.53;;
37785;SDS011;23625;48.784;9.336;2023-12-22T08:42:53;9.68;;;1.50;;
37785;SDS011;23625;48.784;9.336;2023-12-22T08:45:20;4.40;;;1.08;;
37785;SDS011;23625;48.784;9.336;2023-12-22T08:47:46;8.05;;;1.35;;
37785;SDS011;23625;48.784;9.336;2023-12-22T08:50:12;12.10;;;1.77;;
37785;SDS011;23625;48.784;9.336;2023-12-22T08:52:38;16.10;;;1.95;;
37785;SDS011;23625;48.784;9.336;2023-12-22T08:55:04;16.15;;;2.65;;
37785;SDS011;23625;48.784;9.336;2023-12-22T08:57:30;11.50;;;2.20;;
37785;SDS011;23625;48.784;9.336;2023-12-22T08:59:57;17.65;;;3.10;;
37785;SDS011;23625;48.784;9.336;2023-12-22T09:02:22;20.50;;;3.17;;
37785;SDS011;23625;48.784;9.336;2023-12-22T09:04:48;10.75;;;2.03;;
37785;SDS011;23625;48.784;9.336;2023-12-22T09:07:13;13.95;;;2.25;;
37785;SDS011;23625;48.784;9.336;2023-12-22T09:09:39;17.33;;;2.80;;
37785;SDS011;23625;48.784;9.336;2023-12-22T09:12:05;16.42;;;2.75;;
37785;SDS011;23625;48.784;9.336;2023-12-22T09:14:31;19.23;;;2.83;;
37785;SDS011;23625;48.784;9.336;2023-12-22T09:16:56;15.60;;;2.60;;
37785;SDS011;23625;48.784;9.336;2023-12-22T09:19:22;9.68;;;2.00;;
37785;SDS011;23625;48.784;9.336;2023-12-22T09:21:48;21.73;;;3.22;;
37785;SDS011;23625;48.784;9.336;2023-12-22T09:24:14;21.40;;;2.63;;
37785;SDS011;23625;48.784;9.336;2023-12-22T09:26:42;16.63;;;2.67;;
37785;SDS011;23625;48.784;9.336;2023-12-22T09:29:07;23.25;;;2.60;;
37785;SDS011;23625;48.784;9.336;2023-12-22T09:31:33;15.60;;;3.08;;
37785;SDS011;23625;48.784;9.336;2023-12-22T09:33:58;13.48;;;2.72;;
37785;SDS011;23625;48.784;9.336;2023-12-22T09:36:24;16.13;;;3.13;;
37785;SDS011;23625;48.784;9.336;2023-12-22T09:38:49;19.40;;;2.95;;
37785;SDS011;23625;48.784;9.336;2023-12-22T09:41:15;16.08;;;4.45;;
37785;SDS011;23625;48.784;9.336;2023-12-22T09:43:41;19.98;;;2.92;;
37785;SDS011;23625;48.784;9.336;2023-12-22T09:46:10;23.40;;;2.70;;
37785;SDS011;23625;48.784;9.336;2023-12-22T09:48:36;19.75;;;2.63;;
37785;SDS011;23625;48.784;9.336;2023-12-22T09:51:04;20.20;;;3.00;;
37785;SDS011;23625;48.784;9.336;2023-12-22T09:53:32;26.48;;;3.20;;
37785;SDS011;23625;48.784;9.336;2023-12-22T09:56:00;18.65;;;2.90;;
37785;SDS011;23625;48.784;9.336;2023-12-22T09:58:26;22.67;;;3.13;;
37785;SDS011;23625;48.784;9.336;2023-12-22T10:00:52;17.23;;;2.15;;
37785;SDS011;23625;48.784;9.336;2023-12-22T10:03:19;17.85;;;2.88;;
37785;SDS011;23625;48.784;9.336;2023-12-22T10:05:46;18.77;;;2.88;;
37785;SDS011;23625;48.784;9.336;2023-12-22T10:08:11;17.33;;;3.35;;
37785;SDS011;23625;48.784;9.336;2023-12-22T10:10:39;15.48;;;3.03;;
37785;SDS011;23625;48.784;9.336;2023-12-22T10:13:08;15.70;;;2.85;;
37785;SDS011;23625;48.784;9.336;2023-12-22T10:15:39;16.60;;;2.78;;
37785;SDS011;23625;48.784;9.336;2023-12-22T10:18:08;16.77;;;3.10;;
37785;SDS011;23625;48.784;9.336;2023-12-22T10:20:35;24.42;;;3.50;;
37785;SDS011;23625;48.784;9.336;2023-12-22T10:23:01;20.15;;;3.58;;
37785;SDS011;23625;48.784;9.336;2023-12-22T10:25:29;22.88;;;4.15;;
37785;SDS011;23625;48.784;9.336;2023-12-22T10:27:55;18.52;;;4.03;;
37785;SDS011;23625;48.784;9.336;2023-12-22T10:30:21;31.33;;;6.85;;
37785;SDS011;23625;48.784;9.336;2023-12-22T10:32:50;52.17;;;12.20;;
37785;SDS011;23625;48.784;9.336;2023-12-22T10:35:21;16.02;;;3.55;;
37785;SDS011;23625;48.784;9.336;2023-12-22T10:37:48;32.53;;;5.25;;
37785;SDS011;23625;48.784;9.336;2023-12-22T10:40:17;18.50;;;3.55;;
37785;SDS011;23625;48.784;9.336;2023-12-22T10:42:43;18.33;;;3.05;;
37785;SDS011;23625;48.784;9.336;2023-12-22T10:45:09;17.52;;;3.50;;
37785;SDS011;23625;48.784;9.336;2023-12-22T10:47:35;14.60;;;1.95;;
37785;SDS011;23625;48.784;9.336;2023-12-22T10:50:03;26.00;;;2.83;;
37785;SDS011;23625;48.784;9.336;2023-12-22T10:52:29;20.60;;;3.25;;
37785;SDS011;23625;48.784;9.336;2023-12-22T10:54:56;18.52;;;3.03;;
37785;SDS011;23625;48.784;9.336;2023-12-22T10:57:23;27.08;;;3.70;;
37785;SDS011;23625;48.784;9.336;2023-12-22T10:59:48;14.05;;;2.72;;
37785;SDS011;23625;48.784;9.336;2023-12-22T11:02:16;27.10;;;3.40;;
37785;SDS011;23625;48.784;9.336;2023-12-22T11:04:47;13.38;;;2.00;;
37785;SDS011;23625;48.784;9.336;2023-12-22T11:07:19;15.48;;;2.28;;
37785;SDS011;23625;48.784;9.336;2023-12-22T11:09:52;16.38;;;2.83;;
37785;SDS011;23625;48.784;9.336;2023-12-22T11:12:21;11.40;;;2.38;;
37785;SDS011;23625;48.784;9.336;2023-12-22T11:14:48;9.25;;;1.67;;
37785;SDS011;23625;48.784;9.336;2023-12-22T11:17:17;15.30;;;3.65;;
37785;SDS011;23625;48.784;9.336;2023-12-22T11:19:45;15.25;;;1.83;;
37785;SDS011;23625;48.784;9.336;2023-12-22T11:22:16;9.50;;;1.80;;
37785;SDS011;23625;48.784;9.336;2023-12-22T11:24:44;15.80;;;1.50;;
37785;SDS011;23625;48.784;9.336;2023-12-22T11:27:15;10.52;;;1.67;;
37785;SDS011;23625;48.784;9.336;2023-12-22T11:29:44;7.50;;;1.50;;
37785;SDS011;23625;48.784;9.336;2023-12-22T11:32:17;7.60;;;1.67;;
37785;SDS011;23625;48.784;9.336;2023-12-22T11:34:44;6.03;;;1.20;;
37785;SDS011;23625;48.784;9.336;2023-12-22T11:37:14;7.50;;;1.48;;
37785;SDS011;23625;48.784;9.336;2023-12-22T11:39:41;2.58;;;1.10;;
37785;SDS011;23625;48.784;9.336;2023-12-22T11:42:18;9.57;;;1.40;;
37785;SDS011;23625;48.784;9.336;2023-12-22T11:44:46;3.78;;;1.27;;
37785;SDS011;23625;48.784;9.336;2023-12-22T11:47:12;3.90;;;0.85;;
37785;SDS011;23625;48.784;9.336;2023-12-22T11:49:39;6.10;;;1.35;;
37785;SDS011;23625;48.784;9.336;2023-12-22T11:52:09;11.23;;;4.00;;
37785;SDS011;23625;48.784;9.336;2023-12-22T11:54:50;5.57;;;2.00;;
37785;SDS011;23625;48.784;9.336;2023-12-22T11:57:32;3.78;;;1.05;;
37785;SDS011;23625;48.784;9.336;2023-12-22T12:02:36;8.52;;;1.27;;
37785;SDS011;23625;48.784;9.336;2023-12-22T12:05:04;2.85;;;0.80;;
37785;SDS011;23625;48.784;9.336;2023-12-22T12:07:41;8.10;;;1.02;;
37785;SDS011;23625;48.784;9.336;2023-12-22T12:10:10;3.55;;;0.93;;
37785;SDS011;23625;48.784;9.336;2023-12-22T12:12:37;5.47;;;1.20;;
37785;SDS011;23625;48.784;9.336;2023-12-22T12:15:21;7.18;;;1.88;;
37785;SDS011;23625;48.784;9.336;2023-12-22T12:17:50;1.95;;;0.80;;
37785;SDS011;23625;48.784;9.336;2023-12-22T12:20:15;4.88;;;0.90;;
37785;SDS011;23625;48.784;9.336;2023-12-22T12:22:42;2.80;;;0.85;;
37785;SDS011;23625;48.784;9.336;2023-12-22T12:25:08;1.73;;;0.73;;
37785;SDS011;23625;48.784;9.336;2023-12-22T12:27:35;2.53;;;0.85;;
37785;SDS011;23625;48.784;9.336;2023-12-22T12:30:10;5.75;;;1.17;;
37785;SDS011;23625;48.784;9.336;2023-12-22T12:32:38;5.68;;;0.63;;
37785;SDS011;23625;48.784;9.336;2023-12-22T12:35:04;3.33;;;0.90;;
37785;SDS011;23625;48.784;9.336;2023-12-22T12:37:30;3.50;;;0.85;;
37785;SDS011;23625;48.784;9.336;2023-12-22T12:39:57;3.60;;;1.02;;
37785;SDS011;23625;48.784;9.336;2023-12-22T12:42:29;5.20;;;1.95;;
37785;SDS011;23625;48.784;9.336;2023-12-22T12:44:57;3.92;;;0.80;;
37785;SDS011;23625;48.784;9.336;2023-12-22T12:47:23;26.65;;;11.65;;
37785;SDS011;23625;48.784;9.336;2023-12-22T12:50:01;4.72;;;1.55;;
37785;SDS011;23625;48.784;9.336;2023-12-22T12:52:27;5.50;;;0.82;;
37785;SDS011;23625;48.784;9.336;2023-12-22T12:54:54;2.28;;;1.02;;
37785;SDS011;23625;48.784;9.336;2023-12-22T12:57:20;3.92;;;1.15;;
37785;SDS011;23625;48.784;9.336;2023-12-22T12:59:50;2.47;;;0.90;;
37785;SDS011;23625;48.784;9.336;2023-12-22T13:02:16;1.08;;;0.40;;
37785;SDS011;23625;48.784;9.336;2023-12-22T13:04:42;3.53;;;0.77;;
37785;SDS011;23625;48.784;9.336;2023-12-22T13:07:08;12.50;;;1.90;;
37785;SDS011;23625;48.784;9.336;2023-12-22T13:09:40;7.28;;;0.90;;
37785;SDS011;23625;48.784;9.336;2023-12-22T13:12:07;1.17;;;0.45;;
37785;SDS011;23625;48.784;9.336;2023-12-22T13:14:33;6.22;;;0.75;;
37785;SDS011;23625;48.784;9.336;2023-12-22T13:16:59;4.53;;;1.00;;
37785;SDS011;23625;48.784;9.336;2023-12-22T13:19:25;2.38;;;1.33;;
37785;SDS011;23625;48.784;9.336;2023-12-22T13:21:52;4.18;;;0.70;;
37785;SDS011;23625;48.784;9.336;2023-12-22T13:24:19;1.17;;;0.63;;
37785;SDS011;23625;48.784;9.336;2023-12-22T13:26:45;4.30;;;1.30;;
37785;SDS011;23625;48.784;9.336;2023-12-22T13:29:11;4.00;;;1.30;;
37785;SDS011;23625;48.784;9.336;2023-12-22T13:31:39;2.13;;;0.50;;
37785;SDS011;23625;48.784;9.336;2023-12-22T13:34:12;2.08;;;0.90;;
37785;SDS011;23625;48.784;9.336;2023-12-22T13:36:41;2.03;;;0.60;;
37785;SDS011;23625;48.784;9.336;2023-12-22T13:39:07;1.20;;;0.45;;
37785;SDS011;23625;48.784;9.336;2023-12-22T13:41:34;2.08;;;0.85;;
37785;SDS011;23625;48.784;9.336;2023-12-22T13:44:06;1.60;;;0.70;;
37785;SDS011;23625;48.784;9.336;2023-12-22T13:46:33;2.55;;;0.80;;
37785;SDS011;23625;48.784;9.336;2023-12-22T13:49:02;2.58;;;0.43;;
37785;SDS011;23625;48.784;9.336;2023-12-22T13:54:09;0.82;;;0.35;;
37785;SDS011;23625;48.784;9.336;2023-12-22T13:56:36;0.73;;;0.40;;
37785;SDS011;23625;48.784;9.336;2023-12-22T13:59:05;0.20;;;0.20;;
37785;SDS011;23625;48.784;9.336;2023-12-22T14:01:30;0.43;;;0.30;;
37785;SDS011;23625;48.784;9.336;2023-12-22T14:03:57;0.82;;;0.60;;
37785;SDS011;23625;48.784;9.336;2023-12-22T14:06:24;0.10;;;0.10;;
37785;SDS011;23625;48.784;9.336;2023-12-22T14:08:53;5.80;;;2.13;;
37785;SDS011;23625;48.784;9.336;2023-12-22T14:11:20;4.13;;;1.90;;
37785;SDS011;23625;48.784;9.336;2023-12-22T14:13:46;2.80;;;0.30;;
37785;SDS011;23625;48.784;9.336;2023-12-22T14:16:11;4.15;;;1.50;;
37785;SDS011;23625;48.784;9.336;2023-12-22T14:18:37;2.33;;;0.75;;
37785;SDS011;23625;48.784;9.336;2023-12-22T14:21:02;1.27;;;0.70;;
37785;SDS011;23625;48.784;9.336;2023-12-22T14:23:30;0.73;;;0.38;;
37785;SDS011;23625;48.784;9.336;2023-12-22T14:25:56;0.80;;;0.60;;
37785;SDS011;23625;48.784;9.336;2023-12-22T14:28:21;8.52;;;4.32;;
37785;SDS011;23625;48.784;9.336;2023-12-22T14:30:47;2.53;;;2.00;;
37785;SDS011;23625;48.784;9.336;2023-12-22T14:33:12;3.45;;;1.60;;
37785;SDS011;23625;48.784;9.336;2023-12-22T14:35:39;0.32;;;0.32;;
37785;SDS011;23625;48.784;9.336;2023-12-22T14:38:04;1.30;;;0.80;;
37785;SDS011;23625;48.784;9.336;2023-12-22T14:40:30;2.33;;;0.80;;
37785;SDS011;23625;48.784;9.336;2023-12-22T14:42:56;7.80;;;2.60;;
37785;SDS011;23625;48.784;9.336;2023-12-22T14:45:21;5.72;;;1.48;;
37785;SDS011;23625;48.784;9.336;2023-12-22T14:47:48;0.73;;;0.50;;
37785;SDS011;23625;48.784;9.336;2023-12-22T14:50:13;0.47;;;0.40;;